Le Boreal — FLSY — position and weather

sailwx.info

Track history (hours):
 
Tides and Currents Weather Stations Pressure Air Temp Water Temp Dewpoint Dewpoint Depression Visibility Wind Speed Wind Dir Waves Ship Positions

Le Boreal

Last reported at 2017-Sep-28 18:28 UTC. Time now 2017-Nov-24 22:24 UTC.
Position N 48°13' W 125°23'.
Warning: this ship's position is 57 days out of date.

Length 140 m; draft 5 m.

Type: Passenger vessel. MMSI: 578000500.

Date/timePositionNaut miles runAvg speedWind from/ knotsBaromVisibWave heightAir tempDewpointWater temp
2017-Sep-28 18:28N 48°13' W 125°23'714.9
2017-Sep-28 18:00N 48°18' W 125°16'714.5
2017-Sep-28 17:30N 48°24' W 125°09'713.9
2017-Sep-28 17:00N 48°29' W 125°02'713.6
2017-Sep-28 16:31N 48°30' W 124°53'714.3
2017-Sep-28 16:00N 48°30' W 124°42'714.6
2017-Sep-28 15:30N 48°27' W 124°32'714.8
2017-Sep-28 15:00N 48°24' W 124°22'714.9
2017-Sep-28 14:30N 48°21' W 124°11'815.1
2017-Sep-28 14:00N 48°18' W 124°01'815.6
2017-Sep-28 13:30N 48°17' W 123°49'816.2
2017-Sep-28 13:00N 48°16' W 123°37'714.2
2017-Sep-28 12:29N 48°19' W 123°28'612.5
2017-Sep-28 12:00N 48°23' W 123°21'612.0
2017-Sep-28 11:30N 48°25' W 123°12'611.2
2017-Sep-28 11:00N 48°31' W 123°13'612.0
2017-Sep-28 10:30N 48°37' W 123°14'611.2
2017-Sep-28 10:00N 48°42' W 123°15'815.7
2017-Sep-28 09:31N 48°45' W 123°05'611.7
2017-Sep-28 09:00N 48°51' W 123°04'917.0
2017-Sep-28 08:30N 48°57' W 123°14'816.6
2017-Sep-28 08:00N 49°03' W 123°23'815.2
2017-Sep-28 07:31N 49°10' W 123°22'815.1
2017-Sep-28 07:01N 49°17' W 123°19'713.6
2017-Sep-28 06:31N 49°19' W 123°09'2 3.9
2017-Sep-28 05:58N 49°17' W 123°07'0 0.0
2017-Sep-28 05:28N 49°17' W 123°07'0 0.0
2017-Sep-28 04:58N 49°17' W 123°07'0 0.0
2017-Sep-28 04:28N 49°17' W 123°07'0 0.0
2017-Sep-28 03:58N 49°17' W 123°07'0 0.0
2017-Sep-28 03:28N 49°17' W 123°07'0 0.0
2017-Sep-28 02:58N 49°17' W 123°07'0 0.0
2017-Sep-28 02:28N 49°17' W 123°07'0 0.0
2017-Sep-28 01:58N 49°17' W 123°07'0 0.0
2017-Sep-28 01:28N 49°17' W 123°07'0 0.0
2017-Sep-28 00:58N 49°17' W 123°07'0 0.0
2017-Sep-28 00:28N 49°17' W 123°07'0 0.0
2017-Sep-27 23:58N 49°17' W 123°07'0 0.0
2017-Sep-27 23:28N 49°17' W 123°07'0 0.0
2017-Sep-27 22:58N 49°17' W 123°07'0 0.0
2017-Sep-27 22:28N 49°17' W 123°07'0 0.0
2017-Sep-27 21:58N 49°17' W 123°07'0 0.0
2017-Sep-27 21:28N 49°17' W 123°07'0 0.0
2017-Sep-27 20:55N 49°17' W 123°07'0 0.0
2017-Sep-27 20:28N 49°17' W 123°07'0 0.0
2017-Sep-27 19:58N 49°17' W 123°07'0 0.0
2017-Sep-27 19:28N 49°17' W 123°07'0 0.0
2017-Sep-27 18:58N 49°17' W 123°07'0 0.0
2017-Sep-27 18:28N 49°17' W 123°07'0 0.0
2017-Sep-27 17:58N 49°17' W 123°07'0 0.0
2017-Sep-27 17:28N 49°17' W 123°07'0 0.0
2017-Sep-27 16:58N 49°17' W 123°07'0 0.0
2017-Sep-27 16:28N 49°17' W 123°07'0 0.0
2017-Sep-27 15:58N 49°17' W 123°07'0 0.0
2017-Sep-27 15:28N 49°17' W 123°07'0 0.0
2017-Sep-27 14:58N 49°17' W 123°07'0 0.0
2017-Sep-27 14:30N 49°17' W 123°07'0 0.8
2017-Sep-27 14:01N 49°18' W 123°06'3 5.1
2017-Sep-27 13:30N 49°19' W 123°10'611.8
2017-Sep-27 13:00N 49°18' W 123°19'611.3
2017-Sep-27 12:30N 49°19' W 123°27'510.8
2017-Sep-27 12:00N 49°20' W 123°35'610.9
2017-Sep-27 11:30N 49°21' W 123°43'611.4
2017-Sep-27 11:00N 49°22' W 123°52'612.0
2017-Sep-27 10:30N 49°23' W 124°01'612.0
2017-Sep-27 10:00N 49°24' W 124°10'611.9
2017-Sep-27 09:30N 49°26' W 124°19'611.8
2017-Sep-27 09:00N 49°29' W 124°27'611.9
2017-Sep-27 08:30N 49°34' W 124°32'611.8
2017-Sep-27 08:00N 49°38' W 124°38'612.3
2017-Sep-27 07:30N 49°43' W 124°44'612.9
2017-Sep-27 07:00N 49°47' W 124°52'613.1
2017-Sep-27 06:30N 49°51' W 124°59'613.0
2017-Sep-27 06:00N 49°56' W 125°07'612.8
2017-Sep-27 05:30N 50°01' W 125°13'613.0
2017-Sep-27 05:00N 50°06' W 125°18'611.4
2017-Sep-27 04:30N 50°11' W 125°22'713.3
2017-Sep-27 03:59N 50°18' W 125°25'1012.0
2017-Sep-27 03:08N 50°22' W 125°39'212.9
2017-Sep-27 03:00N 50°22' W 125°42'49 7.0
2017-Sep-26 20:03N 50°35' W 126°56'0 0.6
2017-Sep-26 19:55N 50°35' W 126°56'0 0.0
2017-Sep-26 14:30N 50°35' W 126°56'5 8.6
2017-Sep-26 13:54N 50°37' W 127°04'512.4
2017-Sep-26 13:30N 50°38' W 127°12'713.3
2017-Sep-26 13:00N 50°43' W 127°19'713.4
2017-Sep-26 12:30N 50°48' W 127°25'612.9
2017-Sep-26 12:00N 50°52' W 127°34'713.1
2017-Sep-26 11:30N 50°56' W 127°42'713.2
2017-Sep-26 11:00N 50°60' W 127°50'713.0
2017-Sep-26 10:30N 51°04' W 127°58'612.5
2017-Sep-26 10:00N 51°08' W 128°06'612.5
2017-Sep-26 09:30N 51°12' W 128°14'612.2
2017-Sep-26 09:00N 51°17' W 128°20'612.3
2017-Sep-26 08:30N 51°22' W 128°24'612.4
2017-Sep-26 08:00N 51°28' W 128°29'611.9
2017-Sep-26 07:30N 51°33' W 128°33'611.6
2017-Sep-26 07:00N 51°38' W 128°37'611.1
2017-Sep-26 06:30N 51°44' W 128°39'611.7
2017-Sep-26 06:00N 51°49' W 128°39'713.3
2017-Sep-26 05:31N 51°56' W 128°39'714.0
2017-Sep-26 05:01N 52°03' W 128°38'714.1
2017-Sep-26 04:30N 52°10' W 128°38'713.9
2017-Sep-26 04:01N 52°17' W 128°35'814.0
2017-Sep-26 03:28N 52°24' W 128°30'98 8.5
2017-Sep-25 15:56N 53°47' W 129°56'512.3
2017-Sep-25 15:30N 53°51' W 130°02'611.8
2017-Sep-25 15:00N 53°55' W 130°10'612.0
2017-Sep-25 14:30N 54°00' W 130°13'611.9
2017-Sep-25 14:00N 54°05' W 130°19'510.9
2017-Sep-25 13:31N 54°10' W 130°21'612.0
2017-Sep-25 13:00N 54°16' W 130°22'3 5.7
2017-Sep-25 12:28N 54°19' W 130°19'0 0.2
2017-Sep-25 11:58N 54°19' W 130°19'0 0.0
2017-Sep-25 11:28N 54°19' W 130°19'0 0.0
2017-Sep-25 10:58N 54°19' W 130°19'0 0.0
2017-Sep-25 10:28N 54°19' W 130°19'0 0.0
2017-Sep-25 09:52N 54°19' W 130°19'0 0.0
2017-Sep-25 09:25N 54°19' W 130°19'0 0.0
2017-Sep-25 08:55N 54°19' W 130°19'0 0.0
2017-Sep-25 08:25N 54°19' W 130°19'0 0.0
2017-Sep-25 07:52N 54°19' W 130°19'0 0.0
2017-Sep-25 07:25N 54°19' W 130°19'0 0.0
2017-Sep-25 06:58N 54°19' W 130°19'0 0.0
2017-Sep-25 06:25N 54°19' W 130°19'0 0.0
2017-Sep-25 05:55N 54°19' W 130°19'0 0.0
2017-Sep-25 05:25N 54°19' W 130°19'0 0.0
2017-Sep-25 04:55N 54°19' W 130°19'0 0.0
2017-Sep-25 04:25N 54°19' W 130°19'0 0.0
2017-Sep-25 03:55N 54°19' W 130°19'0 0.0
2017-Sep-25 03:28N 54°19' W 130°19'0 0.0
2017-Sep-25 02:10N 54°19' W 130°19'0 0.0
2017-Sep-25 01:58N 54°19' W 130°19'0 0.0
2017-Sep-25 01:16N 54°19' W 130°19'0 0.0
2017-Sep-25 00:52N 54°19' W 130°19'0 0.0
2017-Sep-25 00:25N 54°19' W 130°19'0 0.0
2017-Sep-24 23:55N 54°19' W 130°19'0 0.0
2017-Sep-24 23:25N 54°19' W 130°19'0 0.0
2017-Sep-24 22:58N 54°19' W 130°19'0 0.0
2017-Sep-24 22:25N 54°19' W 130°19'0 0.0
2017-Sep-24 21:55N 54°19' W 130°19'0 0.0
2017-Sep-24 21:30N 54°19' W 130°19'2 3.3
2017-Sep-24 21:00N 54°18' W 130°22'612.7
2017-Sep-24 20:30N 54°12' W 130°23'713.7
2017-Sep-24 20:01N 54°14' W 130°34'714.6
2017-Sep-24 19:30N 54°17' W 130°46'713.3
2017-Sep-24 19:00N 54°19' W 130°56'714.0
2017-Sep-24 18:30N 54°21' W 131°08'714.3
2017-Sep-24 18:00N 54°23' W 131°20'  
Track history (hours):
 
Tides and Currents Weather Stations Pressure Air Temp Water Temp Dewpoint Dewpoint Depression Visibility Wind Speed Wind Dir Waves Ship Positions

Le Boreal

Last reported at 2017-Sep-28 18:28 UTC. Time now 2017-Nov-24 22:24 UTC.
Position N 48°13' W 125°23'.
Warning: this ship's position is 57 days out of date.

Length 140 m; draft 5 m.

Type: Passenger vessel. MMSI: 578000500.

Date/timePositionNaut miles runAvg speedWind from/ knotsBaromVisibWave heightAir tempDewpointWater temp
2017-Sep-28 18:28N 48°13' W 125°23'714.9
2017-Sep-28 18:00N 48°18' W 125°16'714.5
2017-Sep-28 17:30N 48°24' W 125°09'713.9
2017-Sep-28 17:00N 48°29' W 125°02'713.6
2017-Sep-28 16:31N 48°30' W 124°53'714.3
2017-Sep-28 16:00N 48°30' W 124°42'714.6
2017-Sep-28 15:30N 48°27' W 124°32'714.8
2017-Sep-28 15:00N 48°24' W 124°22'714.9
2017-Sep-28 14:30N 48°21' W 124°11'815.1
2017-Sep-28 14:00N 48°18' W 124°01'815.6
2017-Sep-28 13:30N 48°17' W 123°49'816.2
2017-Sep-28 13:00N 48°16' W 123°37'714.2
2017-Sep-28 12:29N 48°19' W 123°28'612.5
2017-Sep-28 12:00N 48°23' W 123°21'612.0
2017-Sep-28 11:30N 48°25' W 123°12'611.2
2017-Sep-28 11:00N 48°31' W 123°13'612.0
2017-Sep-28 10:30N 48°37' W 123°14'611.2
2017-Sep-28 10:00N 48°42' W 123°15'815.7
2017-Sep-28 09:31N 48°45' W 123°05'611.7
2017-Sep-28 09:00N 48°51' W 123°04'917.0
2017-Sep-28 08:30N 48°57' W 123°14'816.6
2017-Sep-28 08:00N 49°03' W 123°23'815.2
2017-Sep-28 07:31N 49°10' W 123°22'815.1
2017-Sep-28 07:01N 49°17' W 123°19'713.6
2017-Sep-28 06:31N 49°19' W 123°09'2 3.9
2017-Sep-28 05:58N 49°17' W 123°07'0 0.0
2017-Sep-28 05:28N 49°17' W 123°07'0 0.0
2017-Sep-28 04:58N 49°17' W 123°07'0 0.0
2017-Sep-28 04:28N 49°17' W 123°07'0 0.0
2017-Sep-28 03:58N 49°17' W 123°07'0 0.0
2017-Sep-28 03:28N 49°17' W 123°07'0 0.0
2017-Sep-28 02:58N 49°17' W 123°07'0 0.0
2017-Sep-28 02:28N 49°17' W 123°07'0 0.0
2017-Sep-28 01:58N 49°17' W 123°07'0 0.0
2017-Sep-28 01:28N 49°17' W 123°07'0 0.0
2017-Sep-28 00:58N 49°17' W 123°07'0 0.0
2017-Sep-28 00:28N 49°17' W 123°07'0 0.0
2017-Sep-27 23:58N 49°17' W 123°07'0 0.0
2017-Sep-27 23:28N 49°17' W 123°07'0 0.0
2017-Sep-27 22:58N 49°17' W 123°07'0 0.0
2017-Sep-27 22:28N 49°17' W 123°07'0 0.0
2017-Sep-27 21:58N 49°17' W 123°07'0 0.0
2017-Sep-27 21:28N 49°17' W 123°07'0 0.0
2017-Sep-27 20:55N 49°17' W 123°07'0 0.0
2017-Sep-27 20:28N 49°17' W 123°07'0 0.0
2017-Sep-27 19:58N 49°17' W 123°07'0 0.0
2017-Sep-27 19:28N 49°17' W 123°07'0 0.0
2017-Sep-27 18:58N 49°17' W 123°07'0 0.0
2017-Sep-27 18:28N 49°17' W 123°07'0 0.0
2017-Sep-27 17:58N 49°17' W 123°07'0 0.0
2017-Sep-27 17:28N 49°17' W 123°07'0 0.0
2017-Sep-27 16:58N 49°17' W 123°07'0 0.0
2017-Sep-27 16:28N 49°17' W 123°07'0 0.0
2017-Sep-27 15:58N 49°17' W 123°07'0 0.0
2017-Sep-27 15:28N 49°17' W 123°07'0 0.0
2017-Sep-27 14:58N 49°17' W 123°07'0 0.0
2017-Sep-27 14:30N 49°17' W 123°07'0 0.8
2017-Sep-27 14:01N 49°18' W 123°06'3 5.1
2017-Sep-27 13:30N 49°19' W 123°10'611.8
2017-Sep-27 13:00N 49°18' W 123°19'611.3
2017-Sep-27 12:30N 49°19' W 123°27'510.8
2017-Sep-27 12:00N 49°20' W 123°35'610.9
2017-Sep-27 11:30N 49°21' W 123°43'611.4
2017-Sep-27 11:00N 49°22' W 123°52'612.0
2017-Sep-27 10:30N 49°23' W 124°01'612.0
2017-Sep-27 10:00N 49°24' W 124°10'611.9
2017-Sep-27 09:30N 49°26' W 124°19'611.8
2017-Sep-27 09:00N 49°29' W 124°27'611.9
2017-Sep-27 08:30N 49°34' W 124°32'611.8
2017-Sep-27 08:00N 49°38' W 124°38'612.3
2017-Sep-27 07:30N 49°43' W 124°44'612.9
2017-Sep-27 07:00N 49°47' W 124°52'613.1
2017-Sep-27 06:30N 49°51' W 124°59'613.0
2017-Sep-27 06:00N 49°56' W 125°07'612.8
2017-Sep-27 05:30N 50°01' W 125°13'613.0
2017-Sep-27 05:00N 50°06' W 125°18'611.4
2017-Sep-27 04:30N 50°11' W 125°22'713.3
2017-Sep-27 03:59N 50°18' W 125°25'1012.0
2017-Sep-27 03:08N 50°22' W 125°39'212.9
2017-Sep-27 03:00N 50°22' W 125°42'49 7.0
2017-Sep-26 20:03N 50°35' W 126°56'0 0.6
2017-Sep-26 19:55N 50°35' W 126°56'0 0.0
2017-Sep-26 14:30N 50°35' W 126°56'5 8.6
2017-Sep-26 13:54N 50°37' W 127°04'512.4
2017-Sep-26 13:30N 50°38' W 127°12'713.3
2017-Sep-26 13:00N 50°43' W 127°19'713.4
2017-Sep-26 12:30N 50°48' W 127°25'612.9
2017-Sep-26 12:00N 50°52' W 127°34'713.1
2017-Sep-26 11:30N 50°56' W 127°42'713.2
2017-Sep-26 11:00N 50°60' W 127°50'713.0
2017-Sep-26 10:30N 51°04' W 127°58'612.5
2017-Sep-26 10:00N 51°08' W 128°06'612.5
2017-Sep-26 09:30N 51°12' W 128°14'612.2
2017-Sep-26 09:00N 51°17' W 128°20'612.3
2017-Sep-26 08:30N 51°22' W 128°24'612.4
2017-Sep-26 08:00N 51°28' W 128°29'611.9
2017-Sep-26 07:30N 51°33' W 128°33'611.6
2017-Sep-26 07:00N 51°38' W 128°37'611.1
2017-Sep-26 06:30N 51°44' W 128°39'611.7
2017-Sep-26 06:00N 51°49' W 128°39'713.3
2017-Sep-26 05:31N 51°56' W 128°39'714.0
2017-Sep-26 05:01N 52°03' W 128°38'714.1
2017-Sep-26 04:30N 52°10' W 128°38'713.9
2017-Sep-26 04:01N 52°17' W 128°35'814.0
2017-Sep-26 03:28N 52°24' W 128°30'98 8.5
2017-Sep-25 15:56N 53°47' W 129°56'512.3
2017-Sep-25 15:30N 53°51' W 130°02'611.8
2017-Sep-25 15:00N 53°55' W 130°10'612.0
2017-Sep-25 14:30N 54°00' W 130°13'611.9
2017-Sep-25 14:00N 54°05' W 130°19'510.9
2017-Sep-25 13:31N 54°10' W 130°21'612.0
2017-Sep-25 13:00N 54°16' W 130°22'3 5.7
2017-Sep-25 12:28N 54°19' W 130°19'0 0.2
2017-Sep-25 11:58N 54°19' W 130°19'0 0.0
2017-Sep-25 11:28N 54°19' W 130°19'0 0.0
2017-Sep-25 10:58N 54°19' W 130°19'0 0.0
2017-Sep-25 10:28N 54°19' W 130°19'0 0.0
2017-Sep-25 09:52N 54°19' W 130°19'0 0.0
2017-Sep-25 09:25N 54°19' W 130°19'0 0.0
2017-Sep-25 08:55N 54°19' W 130°19'0 0.0
2017-Sep-25 08:25N 54°19' W 130°19'0 0.0
2017-Sep-25 07:52N 54°19' W 130°19'0 0.0
2017-Sep-25 07:25N 54°19' W 130°19'0 0.0
2017-Sep-25 06:58N 54°19' W 130°19'0 0.0
2017-Sep-25 06:25N 54°19' W 130°19'0 0.0
2017-Sep-25 05:55N 54°19' W 130°19'0 0.0
2017-Sep-25 05:25N 54°19' W 130°19'0 0.0
2017-Sep-25 04:55N 54°19' W 130°19'0 0.0
2017-Sep-25 04:25N 54°19' W 130°19'0 0.0
2017-Sep-25 03:55N 54°19' W 130°19'0 0.0
2017-Sep-25 03:28N 54°19' W 130°19'0 0.0
2017-Sep-25 02:10N 54°19' W 130°19'0 0.0
2017-Sep-25 01:58N 54°19' W 130°19'0 0.0
2017-Sep-25 01:16N 54°19' W 130°19'0 0.0
2017-Sep-25 00:52N 54°19' W 130°19'0 0.0
2017-Sep-25 00:25N 54°19' W 130°19'0 0.0
2017-Sep-24 23:55N 54°19' W 130°19'0 0.0
2017-Sep-24 23:25N 54°19' W 130°19'0 0.0
2017-Sep-24 22:58N 54°19' W 130°19'0 0.0
2017-Sep-24 22:25N 54°19' W 130°19'0 0.0
2017-Sep-24 21:55N 54°19' W 130°19'0 0.0
2017-Sep-24 21:30N 54°19' W 130°19'2 3.3
2017-Sep-24 21:00N 54°18' W 130°22'612.7
2017-Sep-24 20:30N 54°12' W 130°23'713.7
2017-Sep-24 20:01N 54°14' W 130°34'714.6
2017-Sep-24 19:30N 54°17' W 130°46'713.3
2017-Sep-24 19:00N 54°19' W 130°56'714.0
2017-Sep-24 18:30N 54°21' W 131°08'714.3
2017-Sep-24 18:00N 54°23' W 131°20'  

Dump ship's entire track history